sensor_id;sensor_type;location;lat;lon;timestamp;pressure;altitude;pressure_sealevel;temperature;humidity
11648;BME280;5880;52.342;9.662;2022-10-16T00:01:37;100461.56;;;20.01;50.49
11648;BME280;5880;52.342;9.662;2022-10-16T00:04:03;100464.97;;;19.98;50.72
11648;BME280;5880;52.342;9.662;2022-10-16T00:06:30;100469.16;;;19.96;50.52
11648;BME280;5880;52.342;9.662;2022-10-16T00:08:56;100475.31;;;19.93;50.69
11648;BME280;5880;52.342;9.662;2022-10-16T00:11:27;100463.69;;;19.91;50.85
11648;BME280;5880;52.342;9.662;2022-10-16T00:13:58;100469.00;;;19.87;50.56
11648;BME280;5880;52.342;9.662;2022-10-16T00:16:25;100470.75;;;19.83;50.38
11648;BME280;5880;52.342;9.662;2022-10-16T00:18:51;100476.03;;;19.79;50.54
11648;BME280;5880;52.342;9.662;2022-10-16T00:21:21;100477.47;;;19.77;50.49
11648;BME280;5880;52.342;9.662;2022-10-16T00:23:52;100470.84;;;19.73;50.50
11648;BME280;5880;52.342;9.662;2022-10-16T00:26:19;100476.19;;;19.69;50.60
11648;BME280;5880;52.342;9.662;2022-10-16T00:28:50;100475.63;;;19.67;50.82
11648;BME280;5880;52.342;9.662;2022-10-16T00:31:19;100477.94;;;19.60;50.52
11648;BME280;5880;52.342;9.662;2022-10-16T00:33:46;100489.03;;;19.60;51.01
11648;BME280;5880;52.342;9.662;2022-10-16T00:36:18;100486.00;;;19.56;50.68
11648;BME280;5880;52.342;9.662;2022-10-16T00:38:44;100486.66;;;19.48;50.74
11648;BME280;5880;52.342;9.662;2022-10-16T00:41:14;100501.56;;;19.52;50.68
11648;BME280;5880;52.342;9.662;2022-10-16T00:43:55;100489.19;;;19.45;50.83
11648;BME280;5880;52.342;9.662;2022-10-16T00:46:31;100503.59;;;19.47;50.94
11648;BME280;5880;52.342;9.662;2022-10-16T00:49:07;100495.88;;;19.44;50.93
11648;BME280;5880;52.342;9.662;2022-10-16T00:51:54;100489.25;;;19.39;50.72
11648;BME280;5880;52.342;9.662;2022-10-16T00:54:30;100499.28;;;19.35;50.71
11648;BME280;5880;52.342;9.662;2022-10-16T00:57:00;100493.78;;;19.30;51.00
11648;BME280;5880;52.342;9.662;2022-10-16T00:59:34;100501.84;;;19.27;51.04
11648;BME280;5880;52.342;9.662;2022-10-16T01:02:01;100501.34;;;19.25;51.04
11648;BME280;5880;52.342;9.662;2022-10-16T01:04:37;100497.44;;;19.26;51.06
11648;BME280;5880;52.342;9.662;2022-10-16T01:10:30;100491.69;;;19.17;51.26
11648;BME280;5880;52.342;9.662;2022-10-16T01:13:07;100495.06;;;19.14;51.27
11648;BME280;5880;52.342;9.662;2022-10-16T01:15:48;100489.53;;;19.14;51.14
11648;BME280;5880;52.342;9.662;2022-10-16T01:20:59;100487.34;;;19.11;51.18
11648;BME280;5880;52.342;9.662;2022-10-16T01:26:25;100498.19;;;19.07;51.38
11648;BME280;5880;52.342;9.662;2022-10-16T01:29:03;100513.69;;;19.08;51.41
11648;BME280;5880;52.342;9.662;2022-10-16T01:31:39;100518.09;;;19.09;51.42
11648;BME280;5880;52.342;9.662;2022-10-16T01:34:14;100512.56;;;19.09;51.22
11648;BME280;5880;52.342;9.662;2022-10-16T01:36:57;100510.94;;;19.08;51.12
11648;BME280;5880;52.342;9.662;2022-10-16T01:39:32;100510.38;;;19.06;51.29
11648;BME280;5880;52.342;9.662;2022-10-16T01:42:11;100510.38;;;19.06;51.38
11648;BME280;5880;52.342;9.662;2022-10-16T01:44:38;100522.56;;;19.05;51.46
11648;BME280;5880;52.342;9.662;2022-10-16T01:47:09;100522.56;;;19.05;51.41
11648;BME280;5880;52.342;9.662;2022-10-16T01:49:38;100522.56;;;19.05;51.48
11648;BME280;5880;52.342;9.662;2022-10-16T01:52:12;100523.69;;;19.04;51.42
11648;BME280;5880;52.342;9.662;2022-10-16T01:54:45;100514.59;;;18.98;51.45
11648;BME280;5880;52.342;9.662;2022-10-16T01:57:14;100528.75;;;18.97;51.53
11648;BME280;5880;52.342;9.662;2022-10-16T01:59:48;100520.66;;;19.01;51.44
11648;BME280;5880;52.342;9.662;2022-10-16T02:02:18;100533.69;;;19.00;51.60
11648;BME280;5880;52.342;9.662;2022-10-16T02:05:20;100523.75;;;18.99;51.77
11648;BME280;5880;52.342;9.662;2022-10-16T02:07:49;100534.81;;;18.99;51.84
11648;BME280;5880;52.342;9.662;2022-10-16T02:10:15;100519.84;;;19.00;51.79
11648;BME280;5880;52.342;9.662;2022-10-16T02:12:49;100529.81;;;19.01;51.71
11648;BME280;5880;52.342;9.662;2022-10-16T02:15:16;100536.47;;;19.00;51.87
11648;BME280;5880;52.342;9.662;2022-10-16T02:17:42;100535.66;;;19.00;52.13
11648;BME280;5880;52.342;9.662;2022-10-16T02:20:08;100532.06;;;18.99;51.98
11648;BME280;5880;52.342;9.662;2022-10-16T02:22:40;100536.75;;;18.98;52.16
11648;BME280;5880;52.342;9.662;2022-10-16T02:25:28;100547.81;;;18.98;52.19
11648;BME280;5880;52.342;9.662;2022-10-16T02:28:03;100543.41;;;18.97;52.39
11648;BME280;5880;52.342;9.662;2022-10-16T02:30:39;100552.84;;;18.96;52.27
11648;BME280;5880;52.342;9.662;2022-10-16T02:33:11;100557.31;;;18.92;52.51
11648;BME280;5880;52.342;9.662;2022-10-16T02:35:41;100556.50;;;18.92;52.58
11648;BME280;5880;52.342;9.662;2022-10-16T02:38:08;100546.25;;;18.92;52.65
11648;BME280;5880;52.342;9.662;2022-10-16T02:40:35;100537.34;;;18.95;52.68
11648;BME280;5880;52.342;9.662;2022-10-16T02:43:04;100534.81;;;18.99;52.74
11648;BME280;5880;52.342;9.662;2022-10-16T02:45:30;100534.81;;;18.99;52.62
11648;BME280;5880;52.342;9.662;2022-10-16T02:47:56;100538.41;;;19.00;52.76
11648;BME280;5880;52.342;9.662;2022-10-16T02:50:22;100543.41;;;18.97;52.55
11648;BME280;5880;52.342;9.662;2022-10-16T02:52:48;100543.69;;;18.96;52.84
11648;BME280;5880;52.342;9.662;2022-10-16T02:55:14;100548.41;;;18.95;52.82
11648;BME280;5880;52.342;9.662;2022-10-16T02:57:39;100546.47;;;18.96;52.81
11648;BME280;5880;52.342;9.662;2022-10-16T03:00:08;100540.38;;;18.94;52.76
11648;BME280;5880;52.342;9.662;2022-10-16T03:02:34;100547.00;;;18.98;52.71
11648;BME280;5880;52.342;9.662;2022-10-16T03:05:00;100547.00;;;18.98;53.00
11648;BME280;5880;52.342;9.662;2022-10-16T03:07:26;100545.41;;;18.92;52.96
11648;BME280;5880;52.342;9.662;2022-10-16T03:09:51;100549.78;;;18.98;52.99
11648;BME280;5880;52.342;9.662;2022-10-16T03:12:17;100543.13;;;18.99;53.07
11648;BME280;5880;52.342;9.662;2022-10-16T03:14:43;100547.53;;;19.00;53.07
11648;BME280;5880;52.342;9.662;2022-10-16T03:17:09;100552.00;;;19.01;53.17
11648;BME280;5880;52.342;9.662;2022-10-16T03:19:34;100553.34;;;19.04;53.10
11648;BME280;5880;52.342;9.662;2022-10-16T03:22:01;100559.69;;;19.04;52.94
11648;BME280;5880;52.342;9.662;2022-10-16T03:24:27;100547.81;;;19.04;53.02
11648;BME280;5880;52.342;9.662;2022-10-16T03:26:53;100545.84;;;19.04;52.95
11648;BME280;5880;52.342;9.662;2022-10-16T03:29:18;100548.31;;;19.06;52.93
11648;BME280;5880;52.342;9.662;2022-10-16T03:31:44;100532.00;;;19.04;52.78
11648;BME280;5880;52.342;9.662;2022-10-16T03:34:09;100536.19;;;19.02;52.62
11648;BME280;5880;52.342;9.662;2022-10-16T03:36:35;100530.94;;;19.00;52.66
11648;BME280;5880;52.342;9.662;2022-10-16T03:39:02;100539.50;;;18.98;52.69
11648;BME280;5880;52.342;9.662;2022-10-16T03:41:27;100542.28;;;18.98;52.78
11648;BME280;5880;52.342;9.662;2022-10-16T03:43:53;100540.94;;;18.96;52.63
11648;BME280;5880;52.342;9.662;2022-10-16T03:46:19;100544.28;;;18.93;52.77
11648;BME280;5880;52.342;9.662;2022-10-16T03:48:45;100545.69;;;18.90;52.74
11648;BME280;5880;52.342;9.662;2022-10-16T03:51:11;100547.91;;;18.88;52.81
11648;BME280;5880;52.342;9.662;2022-10-16T03:53:36;100553.75;;;18.87;53.10
11648;BME280;5880;52.342;9.662;2022-10-16T03:56:02;100534.34;;;18.87;53.18
11648;BME280;5880;52.342;9.662;2022-10-16T03:58:28;100549.34;;;18.86;53.23
11648;BME280;5880;52.342;9.662;2022-10-16T04:00:54;100538.00;;;18.82;53.39
11648;BME280;5880;52.342;9.662;2022-10-16T04:03:20;100541.84;;;18.86;53.19
11648;BME280;5880;52.342;9.662;2022-10-16T04:05:46;100544.34;;;18.88;53.41
11648;BME280;5880;52.342;9.662;2022-10-16T04:08:12;100545.16;;;18.88;53.24
11648;BME280;5880;52.342;9.662;2022-10-16T04:10:38;100551.50;;;18.89;53.15
11648;BME280;5880;52.342;9.662;2022-10-16T04:13:03;100555.41;;;18.88;53.43
11648;BME280;5880;52.342;9.662;2022-10-16T04:15:29;100566.50;;;18.88;53.19
11648;BME280;5880;52.342;9.662;2022-10-16T04:17:55;100568.13;;;18.89;53.24
11648;BME280;5880;52.342;9.662;2022-10-16T04:20:20;100563.41;;;18.89;53.07
11648;BME280;5880;52.342;9.662;2022-10-16T04:22:46;100572.03;;;18.88;53.14
11648;BME280;5880;52.342;9.662;2022-10-16T04:25:12;100573.13;;;18.87;52.84
11648;BME280;5880;52.342;9.662;2022-10-16T04:27:38;100571.75;;;18.84;52.85
11648;BME280;5880;52.342;9.662;2022-10-16T04:30:05;100566.53;;;18.83;52.92
11648;BME280;5880;52.342;9.662;2022-10-16T04:32:31;100572.63;;;18.80;52.81
11648;BME280;5880;52.342;9.662;2022-10-16T04:34:56;100585.94;;;18.77;52.82
11648;BME280;5880;52.342;9.662;2022-10-16T04:37:26;100579.59;;;18.72;52.96
11648;BME280;5880;52.342;9.662;2022-10-16T04:39:53;100588.97;;;18.76;52.96
11648;BME280;5880;52.342;9.662;2022-10-16T04:42:19;100574.88;;;18.72;53.09
11648;BME280;5880;52.342;9.662;2022-10-16T04:44:45;100574.03;;;18.72;52.96
11648;BME280;5880;52.342;9.662;2022-10-16T04:47:11;100561.59;;;18.69;53.07
11648;BME280;5880;52.342;9.662;2022-10-16T04:49:36;100562.75;;;18.68;52.97
11648;BME280;5880;52.342;9.662;2022-10-16T04:52:03;100576.03;;;18.66;53.19
11648;BME280;5880;52.342;9.662;2022-10-16T04:54:28;100581.56;;;18.66;53.14
11648;BME280;5880;52.342;9.662;2022-10-16T04:56:54;100572.72;;;18.64;53.25
11648;BME280;5880;52.342;9.662;2022-10-16T04:59:21;100569.66;;;18.66;53.25
11648;BME280;5880;52.342;9.662;2022-10-16T05:01:48;100572.72;;;18.64;53.26
11648;BME280;5880;52.342;9.662;2022-10-16T05:04:15;100581.03;;;18.64;53.33
11648;BME280;5880;52.342;9.662;2022-10-16T05:06:41;100590.16;;;18.65;53.59
11648;BME280;5880;52.342;9.662;2022-10-16T05:09:08;100584.88;;;18.63;53.68
11648;BME280;5880;52.342;9.662;2022-10-16T05:11:35;100592.91;;;18.65;53.81
11648;BME280;5880;52.342;9.662;2022-10-16T05:14:01;100592.34;;;18.68;53.98
11648;BME280;5880;52.342;9.662;2022-10-16T05:16:27;100587.66;;;18.68;54.08
11648;BME280;5880;52.342;9.662;2022-10-16T05:18:54;100592.88;;;18.70;54.25
11648;BME280;5880;52.342;9.662;2022-10-16T05:21:20;100595.06;;;18.73;54.28
11648;BME280;5880;52.342;9.662;2022-10-16T05:23:46;100599.22;;;18.75;54.39
11648;BME280;5880;52.342;9.662;2022-10-16T05:26:12;100602.25;;;18.79;54.55
11648;BME280;5880;52.342;9.662;2022-10-16T05:28:37;100608.34;;;18.81;54.61
11648;BME280;5880;52.342;9.662;2022-10-16T05:31:08;100613.03;;;18.86;54.60
11648;BME280;5880;52.342;9.662;2022-10-16T05:33:34;100620.19;;;18.87;54.72
11648;BME280;5880;52.342;9.662;2022-10-16T05:36:07;100612.97;;;18.91;54.58
11648;BME280;5880;52.342;9.662;2022-10-16T05:38:34;100600.81;;;18.92;54.58
11648;BME280;5880;52.342;9.662;2022-10-16T05:41:00;100615.47;;;18.92;54.60
11648;BME280;5880;52.342;9.662;2022-10-16T05:43:28;100629.53;;;18.96;54.57
11648;BME280;5880;52.342;9.662;2022-10-16T05:46:01;100608.75;;;18.98;54.50
11648;BME280;5880;52.342;9.662;2022-10-16T05:48:27;100608.75;;;18.98;54.51
11648;BME280;5880;52.342;9.662;2022-10-16T05:51:02;100609.28;;;19.01;54.41
11648;BME280;5880;52.342;9.662;2022-10-16T05:53:31;100624.50;;;19.03;54.62
11648;BME280;5880;52.342;9.662;2022-10-16T05:55:57;100617.88;;;19.04;54.50
11648;BME280;5880;52.342;9.662;2022-10-16T05:58:24;100625.34;;;19.04;54.34
11648;BME280;5880;52.342;9.662;2022-10-16T06:01:02;100633.34;;;19.05;54.38
11648;BME280;5880;52.342;9.662;2022-10-16T06:03:28;100623.13;;;19.01;54.50
11648;BME280;5880;52.342;9.662;2022-10-16T06:05:54;100619.28;;;19.02;54.29
11648;BME280;5880;52.342;9.662;2022-10-16T06:08:22;100629.75;;;19.05;54.43
11648;BME280;5880;52.342;9.662;2022-10-16T06:10:49;100630.34;;;19.02;54.32
11648;BME280;5880;52.342;9.662;2022-10-16T06:13:25;100633.41;;;19.00;54.53
11648;BME280;5880;52.342;9.662;2022-10-16T06:15:50;100629.84;;;18.94;54.49
11648;BME280;5880;52.342;9.662;2022-10-16T06:18:16;100625.69;;;18.97;54.37
11648;BME280;5880;52.342;9.662;2022-10-16T06:20:42;100647.00;;;18.96;54.58
11648;BME280;5880;52.342;9.662;2022-10-16T06:23:07;100644.53;;;18.95;54.48
11648;BME280;5880;52.342;9.662;2022-10-16T06:25:33;100653.66;;;18.95;54.72
11648;BME280;5880;52.342;9.662;2022-10-16T06:27:59;100658.38;;;18.95;54.58
11648;BME280;5880;52.342;9.662;2022-10-16T06:30:25;100660.31;;;18.94;54.57
11648;BME280;5880;52.342;9.662;2022-10-16T06:32:50;100664.75;;;18.90;54.72
11648;BME280;5880;52.342;9.662;2022-10-16T06:35:16;100661.13;;;18.95;54.76
11648;BME280;5880;52.342;9.662;2022-10-16T06:37:42;100657.25;;;18.96;54.68
11648;BME280;5880;52.342;9.662;2022-10-16T06:40:08;100655.88;;;18.93;54.70
11648;BME280;5880;52.342;9.662;2022-10-16T06:42:33;100658.91;;;18.97;54.76
11648;BME280;5880;52.342;9.662;2022-10-16T06:44:59;100652.81;;;18.95;54.79
11648;BME280;5880;52.342;9.662;2022-10-16T06:47:24;100653.66;;;18.95;54.81
11648;BME280;5880;52.342;9.662;2022-10-16T06:49:50;100653.69;;;18.90;54.97
11648;BME280;5880;52.342;9.662;2022-10-16T06:52:16;100671.09;;;18.96;54.98
11648;BME280;5880;52.342;9.662;2022-10-16T06:54:41;100683.53;;;18.98;55.19
11648;BME280;5880;52.342;9.662;2022-10-16T06:57:07;100681.31;;;19.01;55.31
11648;BME280;5880;52.342;9.662;2022-10-16T06:59:33;100673.25;;;19.04;55.27
11648;BME280;5880;52.342;9.662;2022-10-16T07:01:58;100678.22;;;19.07;55.31
11648;BME280;5880;52.342;9.662;2022-10-16T07:04:24;100672.63;;;19.12;55.28
11648;BME280;5880;52.342;9.662;2022-10-16T07:06:50;100682.03;;;19.16;55.31
11648;BME280;5880;52.342;9.662;2022-10-16T07:09:17;100671.50;;;19.18;55.16
11648;BME280;5880;52.342;9.662;2022-10-16T07:11:43;100682.53;;;19.24;55.11
11648;BME280;5880;52.342;9.662;2022-10-16T07:14:21;100686.09;;;19.29;55.19
11648;BME280;5880;52.342;9.662;2022-10-16T07:16:47;100705.72;;;19.33;55.26
11648;BME280;5880;52.342;9.662;2022-10-16T07:19:14;100696.00;;;19.35;55.25
11648;BME280;5880;52.342;9.662;2022-10-16T07:21:42;100693.56;;;19.34;55.10
11648;BME280;5880;52.342;9.662;2022-10-16T07:24:13;100693.25;;;19.35;54.98
11648;BME280;5880;52.342;9.662;2022-10-16T07:26:41;100702.03;;;19.43;54.82
11648;BME280;5880;52.342;9.662;2022-10-16T07:29:14;100701.22;;;19.42;54.85
11648;BME280;5880;52.342;9.662;2022-10-16T07:31:40;100712.56;;;19.46;54.93
11648;BME280;5880;52.342;9.662;2022-10-16T07:34:07;100718.41;;;19.44;54.72
11648;BME280;5880;52.342;9.662;2022-10-16T07:36:33;100724.16;;;19.48;54.81
11648;BME280;5880;52.342;9.662;2022-10-16T07:38:58;100723.63;;;19.51;54.80
11648;BME280;5880;52.342;9.662;2022-10-16T07:41:24;100730.22;;;19.55;54.86
11648;BME280;5880;52.342;9.662;2022-10-16T07:43:52;100733.25;;;19.58;55.25
11648;BME280;5880;52.342;9.662;2022-10-16T07:46:21;100741.81;;;19.62;54.93
11648;BME280;5880;52.342;9.662;2022-10-16T07:48:47;100749.56;;;19.65;55.07
11648;BME280;5880;52.342;9.662;2022-10-16T07:51:16;100746.50;;;19.67;55.09
11648;BME280;5880;52.342;9.662;2022-10-16T07:53:42;100751.19;;;19.71;55.16
11648;BME280;5880;52.342;9.662;2022-10-16T07:56:08;100749.78;;;19.74;54.81
11648;BME280;5880;52.342;9.662;2022-10-16T07:58:35;100753.63;;;19.78;54.81
11648;BME280;5880;52.342;9.662;2022-10-16T08:01:09;100744.19;;;19.79;54.72
11648;BME280;5880;52.342;9.662;2022-10-16T08:03:35;100763.28;;;19.86;54.85
11648;BME280;5880;52.342;9.662;2022-10-16T08:06:03;100766.81;;;19.91;54.67
11648;BME280;5880;52.342;9.662;2022-10-16T08:08:29;100773.13;;;19.97;55.05
11648;BME280;5880;52.342;9.662;2022-10-16T08:10:55;100773.09;;;20.02;54.58
11648;BME280;5880;52.342;9.662;2022-10-16T08:13:21;100771.09;;;20.08;54.89
11648;BME280;5880;52.342;9.662;2022-10-16T08:15:47;100788.22;;;20.15;54.61
11648;BME280;5880;52.342;9.662;2022-10-16T08:18:14;100789.00;;;20.20;54.90
11648;BME280;5880;52.342;9.662;2022-10-16T08:20:42;100786.72;;;20.28;54.78
11648;BME280;5880;52.342;9.662;2022-10-16T08:23:11;100782.81;;;20.29;54.44
11648;BME280;5880;52.342;9.662;2022-10-16T08:25:37;100785.78;;;20.37;54.70
11648;BME280;5880;52.342;9.662;2022-10-16T08:28:09;100799.59;;;20.42;54.54
11648;BME280;5880;52.342;9.662;2022-10-16T08:30:36;100802.09;;;20.44;54.32
11648;BME280;5880;52.342;9.662;2022-10-16T08:33:02;100809.28;;;20.45;54.26
11648;BME280;5880;52.342;9.662;2022-10-16T08:35:28;100803.47;;;20.47;54.10
11648;BME280;5880;52.342;9.662;2022-10-16T08:37:54;100809.84;;;20.47;53.96
11648;BME280;5880;52.342;9.662;2022-10-16T08:40:26;100812.00;;;20.50;53.96
11648;BME280;5880;52.342;9.662;2022-10-16T08:46:29;100828.06;;;20.53;54.00
11648;BME280;5880;52.342;9.662;2022-10-16T08:49:02;100826.72;;;20.51;53.79
11648;BME280;5880;52.342;9.662;2022-10-16T08:51:35;100825.28;;;20.53;54.01
11648;BME280;5880;52.342;9.662;2022-10-16T08:54:05;100840.59;;;20.56;53.98
11648;BME280;5880;52.342;9.662;2022-10-16T08:56:31;100835.03;;;20.56;54.18
11648;BME280;5880;52.342;9.662;2022-10-16T08:58:59;100832.47;;;20.59;54.13
11648;BME280;5880;52.342;9.662;2022-10-16T09:01:44;100831.31;;;20.65;53.88
11648;BME280;5880;52.342;9.662;2022-10-16T09:04:47;100842.09;;;20.72;53.99
11648;BME280;5880;52.342;9.662;2022-10-16T09:10:56;100843.84;;;20.87;54.18
11648;BME280;5880;52.342;9.662;2022-10-16T09:13:37;100839.81;;;20.98;54.44
11648;BME280;5880;52.342;9.662;2022-10-16T09:16:35;100844.28;;;21.18;55.06
11648;BME280;5880;52.342;9.662;2022-10-16T09:19:40;100867.72;;;21.55;55.72
11648;BME280;5880;52.342;9.662;2022-10-16T09:22:15;100861.44;;;22.01;55.29
11648;BME280;5880;52.342;9.662;2022-10-16T09:24:41;100875.00;;;22.54;55.25
11648;BME280;5880;52.342;9.662;2022-10-16T09:27:12;100874.34;;;23.18;54.81
11648;BME280;5880;52.342;9.662;2022-10-16T09:29:39;100878.16;;;23.86;53.99
11648;BME280;5880;52.342;9.662;2022-10-16T09:32:19;100882.63;;;24.63;52.92
11648;BME280;5880;52.342;9.662;2022-10-16T09:34:50;100886.66;;;25.28;51.54
11648;BME280;5880;52.342;9.662;2022-10-16T09:37:21;100877.88;;;25.87;50.33
11648;BME280;5880;52.342;9.662;2022-10-16T09:39:54;100880.31;;;26.32;49.55
11648;BME280;5880;52.342;9.662;2022-10-16T09:42:34;100874.44;;;26.72;48.68
11648;BME280;5880;52.342;9.662;2022-10-16T09:45:01;100890.75;;;27.09;48.04
11648;BME280;5880;52.342;9.662;2022-10-16T09:47:30;100893.13;;;27.36;47.14
11648;BME280;5880;52.342;9.662;2022-10-16T09:50:00;100900.22;;;27.64;46.67
11648;BME280;5880;52.342;9.662;2022-10-16T09:52:29;100893.94;;;27.88;46.29
11648;BME280;5880;52.342;9.662;2022-10-16T09:54:58;100892.75;;;28.10;46.00
11648;BME280;5880;52.342;9.662;2022-10-16T09:57:25;100904.88;;;28.35;45.52
11648;BME280;5880;52.342;9.662;2022-10-16T09:59:54;100904.38;;;28.54;44.81
11648;BME280;5880;52.342;9.662;2022-10-16T10:02:34;100901.63;;;28.78;44.53
11648;BME280;5880;52.342;9.662;2022-10-16T10:05:01;100905.28;;;28.91;43.81
11648;BME280;5880;52.342;9.662;2022-10-16T10:07:32;100907.97;;;28.88;43.15
11648;BME280;5880;52.342;9.662;2022-10-16T10:10:01;100911.13;;;28.86;42.95
11648;BME280;5880;52.342;9.662;2022-10-16T10:12:30;100913.38;;;28.80;42.41
11648;BME280;5880;52.342;9.662;2022-10-16T10:15:04;100917.44;;;28.71;42.13
11648;BME280;5880;52.342;9.662;2022-10-16T10:17:31;100912.41;;;28.64;42.67
11648;BME280;5880;52.342;9.662;2022-10-16T10:22:46;100920.19;;;28.25;42.58
11648;BME280;5880;52.342;9.662;2022-10-16T10:33:59;100932.34;;;26.42;43.28
11648;BME280;5880;52.342;9.662;2022-10-16T10:36:39;100924.66;;;26.04;43.30
11648;BME280;5880;52.342;9.662;2022-10-16T10:39:13;100925.78;;;25.68;43.66
11648;BME280;5880;52.342;9.662;2022-10-16T10:42:12;100930.59;;;25.28;43.91
11648;BME280;5880;52.342;9.662;2022-10-16T10:51:01;100934.94;;;24.27;44.56
11648;BME280;5880;52.342;9.662;2022-10-16T10:56:46;100930.84;;;23.88;45.21
11648;BME280;5880;52.342;9.662;2022-10-16T11:01:59;100923.97;;;23.57;45.71
11648;BME280;5880;52.342;9.662;2022-10-16T11:07:44;100934.84;;;23.45;46.16
11648;BME280;5880;52.342;9.662;2022-10-16T11:10:23;100948.59;;;23.42;46.32
11648;BME280;5880;52.342;9.662;2022-10-16T11:13:00;100935.88;;;23.35;46.30
11648;BME280;5880;52.342;9.662;2022-10-16T11:15:35;100941.25;;;23.32;46.21
11648;BME280;5880;52.342;9.662;2022-10-16T11:18:08;100942.59;;;23.34;46.18
11648;BME280;5880;52.342;9.662;2022-10-16T11:20:53;100939.59;;;23.31;46.20
11648;BME280;5880;52.342;9.662;2022-10-16T11:23:35;100939.59;;;23.31;46.38
11648;BME280;5880;52.342;9.662;2022-10-16T11:26:12;100940.75;;;23.30;46.36
11648;BME280;5880;52.342;9.662;2022-10-16T11:28:50;100942.59;;;23.34;46.37
11648;BME280;5880;52.342;9.662;2022-10-16T11:31:36;100947.25;;;23.39;46.51
11648;BME280;5880;52.342;9.662;2022-10-16T11:34:28;100955.28;;;23.41;46.56
11648;BME280;5880;52.342;9.662;2022-10-16T11:37:30;100961.91;;;23.45;46.71
11648;BME280;5880;52.342;9.662;2022-10-16T11:40:25;100955.16;;;23.46;46.58
11648;BME280;5880;52.342;9.662;2022-10-16T11:43:38;100964.78;;;23.53;47.01
11648;BME280;5880;52.342;9.662;2022-10-16T11:46:18;100959.91;;;23.59;46.86
11648;BME280;5880;52.342;9.662;2022-10-16T11:48:56;100970.78;;;23.60;46.59
11648;BME280;5880;52.342;9.662;2022-10-16T11:54:41;100976.44;;;23.69;46.51
11648;BME280;5880;52.342;9.662;2022-10-16T11:57:19;100967.75;;;23.71;46.46
11648;BME280;5880;52.342;9.662;2022-10-16T12:00:37;100973.34;;;23.71;46.43
11648;BME280;5880;52.342;9.662;2022-10-16T12:02:54;100979.44;;;23.73;46.34
11648;BME280;5880;52.342;9.662;2022-10-16T12:08:11;100977.72;;;23.77;46.54
11648;BME280;5880;52.342;9.662;2022-10-16T12:10:41;100984.09;;;23.77;46.29
11648;BME280;5880;52.342;9.662;2022-10-16T12:16:27;100981.19;;;23.83;46.33
11648;BME280;5880;52.342;9.662;2022-10-16T12:19:15;100989.78;;;23.86;46.50
11648;BME280;5880;52.342;9.662;2022-10-16T12:21:43;100987.81;;;23.87;45.93
11648;BME280;5880;52.342;9.662;2022-10-16T12:24:35;100989.66;;;23.91;46.30
11648;BME280;5880;52.342;9.662;2022-10-16T12:27:05;100992.16;;;23.93;46.20
11648;BME280;5880;52.342;9.662;2022-10-16T12:29:41;100990.38;;;23.97;45.88
11648;BME280;5880;52.342;9.662;2022-10-16T12:32:34;100987.78;;;24.00;46.44
11648;BME280;5880;52.342;9.662;2022-10-16T12:35:03;100981.69;;;23.98;46.18
11648;BME280;5880;52.342;9.662;2022-10-16T12:37:37;100993.88;;;24.02;45.72
11648;BME280;5880;52.342;9.662;2022-10-16T12:40:25;100990.56;;;24.00;45.71
11648;BME280;5880;52.342;9.662;2022-10-16T12:42:52;100998.75;;;23.97;45.81
11648;BME280;5880;52.342;9.662;2022-10-16T12:47:55;100996.59;;;23.94;45.58
11648;BME280;5880;52.342;9.662;2022-10-16T12:50:38;101006.94;;;23.93;45.62
11648;BME280;5880;52.342;9.662;2022-10-16T12:53:26;101012.00;;;23.91;45.55
11648;BME280;5880;52.342;9.662;2022-10-16T12:56:35;101009.50;;;23.90;45.56
11648;BME280;5880;52.342;9.662;2022-10-16T13:05:44;101022.44;;;23.86;45.41
11648;BME280;5880;52.342;9.662;2022-10-16T13:08:58;101016.84;;;23.86;45.49
11648;BME280;5880;52.342;9.662;2022-10-16T13:20:40;101027.94;;;23.91;45.44
11648;BME280;5880;52.342;9.662;2022-10-16T13:23:41;101035.38;;;23.95;45.51
11648;BME280;5880;52.342;9.662;2022-10-16T13:26:52;101040.09;;;23.95;45.14
11648;BME280;5880;52.342;9.662;2022-10-16T13:29:22;101038.97;;;23.96;45.20
11648;BME280;5880;52.342;9.662;2022-10-16T13:31:48;101037.53;;;23.98;44.91
11648;BME280;5880;52.342;9.662;2022-10-16T13:34:21;101044.97;;;24.03;44.68
11648;BME280;5880;52.342;9.662;2022-10-16T13:36:52;101046.28;;;24.06;44.84
11648;BME280;5880;52.342;9.662;2022-10-16T13:39:30;101040.41;;;24.07;45.08
11648;BME280;5880;52.342;9.662;2022-10-16T13:42:05;101052.91;;;24.10;44.90
11648;BME280;5880;52.342;9.662;2022-10-16T13:44:47;101051.47;;;24.12;45.07
11648;BME280;5880;52.342;9.662;2022-10-16T13:47:23;101047.84;;;24.12;44.61
11648;BME280;5880;52.342;9.662;2022-10-16T13:50:15;101044.94;;;24.17;44.77
11648;BME280;5880;52.342;9.662;2022-10-16T13:52:41;101040.81;;;24.14;44.42
11648;BME280;5880;52.342;9.662;2022-10-16T13:55:17;101046.91;;;24.16;44.60
11648;BME280;5880;52.342;9.662;2022-10-16T13:57:44;101045.22;;;24.15;44.74
11648;BME280;5880;52.342;9.662;2022-10-16T14:00:26;101055.75;;;24.18;44.40
11648;BME280;5880;52.342;9.662;2022-10-16T14:03:12;101045.53;;;24.14;44.71
11648;BME280;5880;52.342;9.662;2022-10-16T14:05:55;101051.03;;;24.19;44.31
11648;BME280;5880;52.342;9.662;2022-10-16T14:08:24;101057.75;;;24.18;44.79
11648;BME280;5880;52.342;9.662;2022-10-16T14:10:55;101065.00;;;24.19;44.28
11648;BME280;5880;52.342;9.662;2022-10-16T14:13:34;101070.25;;;24.20;43.91
11648;BME280;5880;52.342;9.662;2022-10-16T14:16:08;101076.97;;;24.19;43.97
11648;BME280;5880;52.342;9.662;2022-10-16T14:18:37;101083.38;;;24.20;44.09
11648;BME280;5880;52.342;9.662;2022-10-16T14:21:15;101087.00;;;24.20;44.02
11648;BME280;5880;52.342;9.662;2022-10-16T14:23:42;101080.41;;;24.16;43.93
11648;BME280;5880;52.342;9.662;2022-10-16T14:28:35;101085.47;;;24.14;43.48
11648;BME280;5880;52.342;9.662;2022-10-16T14:33:42;101087.88;;;24.07;43.65
11648;BME280;5880;52.342;9.662;2022-10-16T14:36:14;101081.94;;;24.09;43.69
11648;BME280;5880;52.342;9.662;2022-10-16T14:39:15;101085.38;;;24.06;43.78